Time;durP1;ratioP1;P1;durP2;ratioP2;P2;SDS_P1;SDS_P2;PMS_P1;PMS_P2;Temp;Humidity;BMP_temperature;BMP_pressure;BME280_temperature;BME280_humidity;BME280_pressure;Samples;Min_cycle;Max_cycle;Signal;HPM_P1;HPM_P2
2022/05/19 00:00:35;;;;;;;11.65;2.70;;;;;;;;;;5011743;28;20152;-64
2022/05/19 00:03:02;;;;;;;12.80;2.65;;;;;;;;;;5002872;28;20019;-64
2022/05/19 00:05:28;;;;;;;16.75;3.25;;;;;;;;;;4991781;28;20026;-64
2022/05/19 00:07:54;;;;;;;17.20;3.38;;;;;;;;;;4991753;28;20018;-64
2022/05/19 00:10:20;;;;;;;17.38;3.42;;;;;;;;;;4991650;28;20165;-64
2022/05/19 00:12:46;;;;;;;11.65;2.63;;;;;;;;;;4991686;28;20034;-64
2022/05/19 00:15:13;;;;;;;10.95;2.67;;;;;;;;;;4991543;28;20100;-64
2022/05/19 00:17:39;;;;;;;8.13;2.72;;;;;;;;;;4991710;28;20032;-64
2022/05/19 00:20:06;;;;;;;11.48;3.15;;;;;;;;;;4992116;28;20037;-64
2022/05/19 00:22:32;;;;;;;12.93;2.50;;;;;;;;;;4991698;28;20077;-64
2022/05/19 00:24:58;;;;;;;9.00;2.53;;;;;;;;;;4991314;28;20054;-64
2022/05/19 00:27:24;;;;;;;10.07;2.25;;;;;;;;;;4991843;28;20022;-63
2022/05/19 00:29:50;;;;;;;8.82;2.80;;;;;;;;;;5026107;28;20041;-64
2022/05/19 00:32:16;;;;;;;12.82;2.40;;;;;;;;;;5011683;28;20084;-64
2022/05/19 00:34:42;;;;;;;12.32;2.92;;;;;;;;;;5010829;28;20033;-63
2022/05/19 00:37:09;;;;;;;11.57;2.72;;;;;;;;;;4996472;28;20029;-64
2022/05/19 00:39:35;;;;;;;10.60;2.80;;;;;;;;;;4991400;28;20034;-64
2022/05/19 06:19:38;;;;;;;22.80;13.68;;;;;;;;;;4861333;23;20050;-80
2022/05/19 06:22:05;;;;;;;22.90;13.68;;;;;;;;;;4938154;29;20061;-77
2022/05/19 06:24:32;;;;;;;22.75;13.98;;;;;;;;;;4936034;29;20361;-77
2022/05/19 06:26:59;;;;;;;25.95;14.18;;;;;;;;;;4936627;29;20504;-78
2022/05/19 06:29:25;;;;;;;24.80;14.07;;;;;;;;;;4936707;29;20034;-77
2022/05/19 06:31:51;;;;;;;21.92;14.82;;;;;;;;;;4936101;29;20400;-76
2022/05/19 06:34:17;;;;;;;20.48;13.00;;;;;;;;;;4935309;29;20024;-75
2022/05/19 06:36:43;;;;;;;25.17;15.20;;;;;;;;;;4935881;29;20111;-75
2022/05/19 06:39:10;;;;;;;27.33;14.20;;;;;;;;;;4933864;29;20062;-77
2022/05/19 06:44:21;;;;;;;27.45;15.15;;;;;;;;;;4928541;29;20047;-76
2022/05/19 06:46:47;;;;;;;26.75;14.90;;;;;;;;;;4934886;29;20024;-76
2022/05/19 06:49:13;;;;;;;26.50;14.43;;;;;;;;;;4915140;29;20035;-74
2022/05/19 06:51:40;;;;;;;24.75;14.00;;;;;;;;;;4932143;29;20035;-75
2022/05/19 06:54:06;;;;;;;24.13;12.90;;;;;;;;;;4935818;29;20095;-75
2022/05/19 06:56:35;;;;;;;20.33;12.25;;;;;;;;;;4933901;29;20024;-74
2022/05/19 06:59:01;;;;;;;24.30;13.23;;;;;;;;;;4931166;29;20030;-75
2022/05/19 07:01:27;;;;;;;21.30;13.48;;;;;;;;;;4934071;29;20031;-77
2022/05/19 07:03:54;;;;;;;23.42;13.65;;;;;;;;;;4934111;29;20027;-83
2022/05/19 07:06:20;;;;;;;24.23;13.27;;;;;;;;;;4923957;29;20024;-74
2022/05/19 07:08:47;;;;;;;23.65;13.38;;;;;;;;;;4927830;29;20028;-75
2022/05/19 07:11:26;;;;;;;27.15;12.43;;;;;;;;;;4932850;29;20048;-74
2022/05/19 07:13:56;;;;;;;23.70;13.65;;;;;;;;;;4919383;29;20111;-72
2022/05/19 07:16:22;;;;;;;20.90;11.68;;;;;;;;;;4934663;29;20043;-74
2022/05/19 07:18:49;;;;;;;22.33;13.07;;;;;;;;;;4924657;29;20547;-74
2022/05/19 07:21:18;;;;;;;33.40;13.80;;;;;;;;;;4934339;29;20028;-75
2022/05/19 07:23:44;;;;;;;23.42;12.57;;;;;;;;;;4928838;29;20032;-73
2022/05/19 07:26:10;;;;;;;23.38;13.18;;;;;;;;;;4925965;29;20039;-77
2022/05/19 07:28:36;;;;;;;21.55;13.63;;;;;;;;;;4936257;29;20059;-82
2022/05/19 07:31:03;;;;;;;18.23;11.55;;;;;;;;;;4935700;29;20051;-83
2022/05/19 07:33:29;;;;;;;21.38;12.68;;;;;;;;;;4937385;29;20036;-81
2022/05/19 07:35:56;;;;;;;23.63;12.88;;;;;;;;;;4930524;29;20144;-80
2022/05/19 07:38:22;;;;;;;17.15;11.52;;;;;;;;;;4933345;29;20055;-79
2022/05/19 07:40:49;;;;;;;17.63;11.70;;;;;;;;;;4931091;29;20091;-77
2022/05/19 07:46:00;;;;;;;16.73;10.00;;;;;;;;;;4936053;29;20046;-77
2022/05/19 07:48:27;;;;;;;21.77;11.27;;;;;;;;;;4934048;29;20103;-76
2022/05/19 07:50:53;;;;;;;31.23;12.50;;;;;;;;;;4933297;29;20042;-77
2022/05/19 07:53:19;;;;;;;32.17;10.70;;;;;;;;;;4930314;29;20028;-75
2022/05/19 07:55:46;;;;;;;18.25;9.25;;;;;;;;;;4925970;29;20034;-74
2022/05/19 07:58:13;;;;;;;14.60;9.20;;;;;;;;;;4924650;29;20504;-74
2022/05/19 08:00:40;;;;;;;18.95;9.90;;;;;;;;;;4930927;29;20148;-74
2022/05/19 08:03:06;;;;;;;21.60;9.52;;;;;;;;;;4934122;29;20047;-76
2022/05/19 08:05:32;;;;;;;16.25;8.77;;;;;;;;;;4933565;29;20151;-74
2022/05/19 08:07:59;;;;;;;14.05;8.77;;;;;;;;;;4913747;29;20038;-75
2022/05/19 08:10:25;;;;;;;12.63;7.18;;;;;;;;;;4929585;29;20119;-75
2022/05/19 08:15:37;;;;;;;11.02;6.35;;;;;;;;;;4930690;29;20047;-74
2022/05/19 08:18:05;;;;;;;15.88;8.50;;;;;;;;;;4930963;29;20039;-74
2022/05/19 08:20:32;;;;;;;18.38;9.68;;;;;;;;;;4931224;29;20032;-74
2022/05/19 08:22:58;;;;;;;21.65;9.32;;;;;;;;;;4933394;29;20116;-74
2022/05/19 08:25:26;;;;;;;14.27;7.88;;;;;;;;;;4932028;29;20388;-75
2022/05/19 08:27:53;;;;;;;14.35;8.55;;;;;;;;;;4930281;29;20135;-74
2022/05/19 08:30:19;;;;;;;11.38;5.53;;;;;;;;;;4925487;29;20035;-74
2022/05/19 08:32:45;;;;;;;9.27;5.05;;;;;;;;;;4923676;29;20035;-74
2022/05/19 08:35:11;;;;;;;5.88;3.20;;;;;;;;;;4928078;29;20020;-74
2022/05/19 08:37:38;;;;;;;6.40;3.45;;;;;;;;;;4932664;29;20039;-75
2022/05/19 08:40:04;;;;;;;8.00;3.42;;;;;;;;;;4931605;29;20031;-75
2022/05/19 08:42:32;;;;;;;8.32;3.53;;;;;;;;;;4932188;29;20024;-76
2022/05/19 08:45:02;;;;;;;7.05;3.20;;;;;;;;;;4932614;29;20031;-75
2022/05/19 08:47:31;;;;;;;13.52;3.30;;;;;;;;;;4930828;29;20054;-76
2022/05/19 08:49:58;;;;;;;7.70;2.55;;;;;;;;;;4926634;29;20381;-77
2022/05/19 08:52:26;;;;;;;15.15;3.40;;;;;;;;;;4915206;29;20040;-77
2022/05/19 08:54:56;;;;;;;8.85;2.95;;;;;;;;;;4929238;29;20027;-77
2022/05/19 08:57:22;;;;;;;21.70;4.55;;;;;;;;;;4934095;29;20036;-77
2022/05/19 09:00:09;;;;;;;15.88;3.70;;;;;;;;;;4932748;29;20028;-77
2022/05/19 09:02:45;;;;;;;11.40;3.55;;;;;;;;;;4934227;29;20032;-78
2022/05/19 09:05:26;;;;;;;9.52;3.70;;;;;;;;;;4931217;29;20039;-77
2022/05/19 09:08:01;;;;;;;12.48;3.60;;;;;;;;;;4929206;29;20028;-77
2022/05/19 09:10:30;;;;;;;14.40;3.83;;;;;;;;;;4933300;29;20060;-76
2022/05/19 09:13:16;;;;;;;11.98;3.25;;;;;;;;;;4932290;29;20055;-76
2022/05/19 09:15:44;;;;;;;8.95;3.30;;;;;;;;;;4932134;29;20111;-75
2022/05/19 09:18:11;;;;;;;8.75;3.28;;;;;;;;;;4925616;29;20035;-74
2022/05/19 09:20:54;;;;;;;6.47;2.95;;;;;;;;;;4936600;29;20039;-74
2022/05/19 09:23:20;;;;;;;9.23;2.95;;;;;;;;;;4928993;29;20548;-75
2022/05/19 09:25:54;;;;;;;8.30;2.50;;;;;;;;;;4920857;29;20509;-74
2022/05/19 09:28:20;;;;;;;7.75;2.70;;;;;;;;;;4937962;29;20027;-75
2022/05/19 09:30:51;;;;;;;20.40;3.63;;;;;;;;;;4935634;29;20500;-75
2022/05/19 09:33:31;;;;;;;12.52;2.92;;;;;;;;;;4935048;29;20050;-75
2022/05/19 09:36:01;;;;;;;13.07;2.47;;;;;;;;;;4936867;29;20024;-73
2022/05/19 09:38:33;;;;;;;13.23;2.90;;;;;;;;;;4903739;29;20047;-72
2022/05/19 09:41:02;;;;;;;6.25;1.85;;;;;;;;;;4930512;29;20031;-73
2022/05/19 09:43:32;;;;;;;4.15;1.90;;;;;;;;;;4935878;29;20031;-73
2022/05/19 09:46:10;;;;;;;7.28;1.95;;;;;;;;;;4934791;29;20396;-72
2022/05/19 09:48:41;;;;;;;5.78;1.70;;;;;;;;;;4936037;29;20024;-72
2022/05/19 09:51:11;;;;;;;3.75;1.90;;;;;;;;;;4933137;29;20111;-72
2022/05/19 09:53:39;;;;;;;4.80;1.95;;;;;;;;;;4935151;29;20028;-72
2022/05/19 09:56:08;;;;;;;5.05;1.80;;;;;;;;;;4934987;29;20032;-72
2022/05/19 09:58:37;;;;;;;3.83;1.60;;;;;;;;;;4927916;29;20051;-72
2022/05/19 10:01:06;;;;;;;5.88;1.70;;;;;;;;;;4933984;29;20397;-72
2022/05/19 10:03:37;;;;;;;5.60;1.67;;;;;;;;;;4936483;29;20035;-72
2022/05/19 10:06:23;;;;;;;3.70;1.30;;;;;;;;;;4930765;29;20023;-72
2022/05/19 10:09:08;;;;;;;4.10;1.83;;;;;;;;;;4935032;29;20031;-72
2022/05/19 10:11:35;;;;;;;5.07;1.38;;;;;;;;;;4932004;29;20046;-72
2022/05/19 10:14:04;;;;;;;4.82;1.38;;;;;;;;;;4929692;29;20035;-71
2022/05/19 10:16:40;;;;;;;5.32;1.30;;;;;;;;;;4931872;29;20020;-71
2022/05/19 10:19:06;;;;;;;5.22;1.25;;;;;;;;;;4933280;29;20036;-72
2022/05/19 10:21:53;;;;;;;3.85;1.50;;;;;;;;;;4934852;29;20642;-71
2022/05/19 10:24:26;;;;;;;6.03;1.80;;;;;;;;;;4935936;29;20036;-71
2022/05/19 10:32:51;;;;;;;4.43;1.92;;;;;;;;;;4934448;29;20166;-72
2022/05/19 10:35:17;;;;;;;5.95;1.70;;;;;;;;;;4930560;29;20027;-71
2022/05/19 10:37:43;;;;;;;5.22;1.73;;;;;;;;;;4930045;29;20035;-73
2022/05/19 10:40:19;;;;;;;4.18;1.75;;;;;;;;;;4934659;29;20024;-70
2022/05/19 10:42:48;;;;;;;3.88;1.98;;;;;;;;;;4935073;29;20042;-70
2022/05/19 10:45:26;;;;;;;6.85;2.00;;;;;;;;;;4935582;29;20030;-70
2022/05/19 10:47:56;;;;;;;4.60;2.53;;;;;;;;;;4932077;29;20055;-72
2022/05/19 10:50:28;;;;;;;4.68;2.00;;;;;;;;;;4915680;29;20032;-69
2022/05/19 10:53:13;;;;;;;8.38;1.73;;;;;;;;;;4916740;29;20027;-72
2022/05/19 10:55:54;;;;;;;7.80;1.67;;;;;;;;;;4916463;29;20040;-72
2022/05/19 10:58:29;;;;;;;7.32;2.40;;;;;;;;;;4916305;29;20070;-71
2022/05/19 11:01:01;;;;;;;15.43;2.33;;;;;;;;;;4916381;29;20028;-72
2022/05/19 11:03:54;;;;;;;14.77;1.80;;;;;;;;;;4916303;29;20035;-72
2022/05/19 11:06:38;;;;;;;5.78;1.70;;;;;;;;;;4900691;29;20083;-71
2022/05/19 11:09:23;;;;;;;4.22;1.60;;;;;;;;;;4915967;29;20032;-71
2022/05/19 11:11:49;;;;;;;4.13;1.77;;;;;;;;;;4916472;29;20099;-71
2022/05/19 11:14:34;;;;;;;6.80;1.60;;;;;;;;;;4928531;29;20039;-72
2022/05/19 11:17:07;;;;;;;6.85;2.15;;;;;;;;;;4935397;29;20031;-71
2022/05/19 11:19:42;;;;;;;10.00;2.27;;;;;;;;;;4934950;29;20048;-72
2022/05/19 11:22:10;;;;;;;5.47;1.88;;;;;;;;;;4934609;29;20058;-72
2022/05/19 11:27:58;;;;;;;7.43;2.17;;;;;;;;;;4935155;29;20054;-71
2022/05/19 11:30:37;;;;;;;9.52;2.47;;;;;;;;;;4934806;29;20035;-70
2022/05/19 11:33:05;;;;;;;8.43;2.30;;;;;;;;;;4934726;29;20027;-71
2022/05/19 11:35:35;;;;;;;7.25;2.30;;;;;;;;;;4934092;29;20024;-71
2022/05/19 11:38:18;;;;;;;6.20;1.88;;;;;;;;;;4933722;29;20028;-70
2022/05/19 11:41:02;;;;;;;11.45;2.72;;;;;;;;;;4915227;29;20032;-70
2022/05/19 11:43:34;;;;;;;10.30;2.25;;;;;;;;;;4915893;29;20560;-70
2022/05/19 11:46:22;;;;;;;7.70;1.80;;;;;;;;;;4915646;29;20068;-71
2022/05/19 11:55:19;;;;;;;5.57;2.00;;;;;;;;;;4915447;29;20055;-70
2022/05/19 11:58:03;;;;;;;7.25;1.77;;;;;;;;;;4875668;29;20040;-70
2022/05/19 12:01:08;;;;;;;5.63;1.90;;;;;;;;;;4875901;29;20025;-71
2022/05/19 12:03:43;;;;;;;8.13;2.15;;;;;;;;;;4852198;29;20084;-70
2022/05/19 12:06:10;;;;;;;6.15;2.20;;;;;;;;;;4856792;29;20038;-70
2022/05/19 12:08:46;;;;;;;5.57;2.40;;;;;;;;;;4888168;29;20489;-70
2022/05/19 12:11:15;;;;;;;7.38;2.38;;;;;;;;;;4898104;29;20409;-70
2022/05/19 12:13:46;;;;;;;9.55;2.90;;;;;;;;;;4923517;29;20031;-70
2022/05/19 12:16:18;;;;;;;10.13;2.70;;;;;;;;;;4933725;29;20031;-71
2022/05/19 12:19:04;;;;;;;9.18;2.47;;;;;;;;;;4934070;29;20515;-71
2022/05/19 12:21:36;;;;;;;7.28;3.08;;;;;;;;;;4933955;29;20101;-70
2022/05/19 12:24:07;;;;;;;8.90;2.42;;;;;;;;;;4933785;29;20516;-71
2022/05/19 12:26:37;;;;;;;6.82;2.60;;;;;;;;;;4933993;29;20028;-70
2022/05/19 12:29:07;;;;;;;8.23;2.60;;;;;;;;;;4934017;29;20023;-70
2022/05/19 12:34:23;;;;;;;7.25;2.00;;;;;;;;;;4933609;29;20087;-71
2022/05/19 12:36:55;;;;;;;7.85;2.08;;;;;;;;;;4933537;29;20031;-70
2022/05/19 12:39:21;;;;;;;7.50;2.05;;;;;;;;;;4933721;29;20042;-71
2022/05/19 12:41:50;;;;;;;6.70;1.95;;;;;;;;;;4933756;29;20020;-70
2022/05/19 12:44:31;;;;;;;7.75;2.10;;;;;;;;;;4933507;29;20039;-70
2022/05/19 12:47:20;;;;;;;9.80;2.22;;;;;;;;;;4932688;29;20035;-70
2022/05/19 12:50:03;;;;;;;7.40;1.90;;;;;;;;;;4933851;29;20020;-70
2022/05/19 12:52:48;;;;;;;10.43;2.10;;;;;;;;;;4933688;29;20048;-70
2022/05/19 12:55:26;;;;;;;7.82;2.13;;;;;;;;;;4933502;29;20255;-69
2022/05/19 12:57:53;;;;;;;7.05;1.83;;;;;;;;;;4933225;29;20032;-70
2022/05/19 13:00:19;;;;;;;8.38;2.00;;;;;;;;;;4933426;29;20082;-70
2022/05/19 13:02:55;;;;;;;8.13;1.98;;;;;;;;;;4933264;29;20036;-70
2022/05/19 13:05:24;;;;;;;7.28;1.83;;;;;;;;;;4900674;29;20601;-70
2022/05/19 13:07:55;;;;;;;6.30;1.73;;;;;;;;;;4914222;29;20051;-67
2022/05/19 13:10:23;;;;;;;9.55;2.03;;;;;;;;;;4914380;29;20561;-70
2022/05/19 13:13:04;;;;;;;9.52;2.42;;;;;;;;;;4917943;29;20032;-71
2022/05/19 13:15:35;;;;;;;8.10;1.90;;;;;;;;;;4933292;29;20027;-70
2022/05/19 13:18:06;;;;;;;8.23;1.80;;;;;;;;;;4933246;29;20024;-70
2022/05/19 13:20:38;;;;;;;9.27;2.00;;;;;;;;;;4932653;29;20028;-70
2022/05/19 13:23:20;;;;;;;10.90;2.00;;;;;;;;;;4933753;29;20036;-69
2022/05/19 13:25:48;;;;;;;10.57;2.05;;;;;;;;;;4933393;29;20028;-70
2022/05/19 13:31:20;;;;;;;9.07;2.30;;;;;;;;;;4933226;29;20246;-70
2022/05/19 13:33:48;;;;;;;9.93;2.13;;;;;;;;;;4932713;29;20034;-70
2022/05/19 13:36:14;;;;;;;11.05;2.15;;;;;;;;;;4932666;29;20503;-70
2022/05/19 13:38:41;;;;;;;8.77;1.80;;;;;;;;;;4922241;29;20505;-70
2022/05/19 13:41:10;;;;;;;9.18;1.85;;;;;;;;;;4914060;29;20024;-70
2022/05/19 13:43:42;;;;;;;9.60;1.83;;;;;;;;;;4914335;29;20511;-71
2022/05/19 13:46:20;;;;;;;8.10;1.50;;;;;;;;;;4914427;29;20038;-70
2022/05/19 13:48:46;;;;;;;10.20;1.75;;;;;;;;;;4914944;29;20039;-70
2022/05/19 13:51:24;;;;;;;6.53;1.60;;;;;;;;;;4914124;29;20040;-70
2022/05/19 13:53:53;;;;;;;6.75;1.38;;;;;;;;;;4914535;29;20028;-70
2022/05/19 13:56:22;;;;;;;9.93;1.98;;;;;;;;;;4914909;29;20395;-70
2022/05/19 13:58:49;;;;;;;9.45;1.70;;;;;;;;;;4920846;29;20469;-70
2022/05/19 14:01:24;;;;;;;10.63;1.50;;;;;;;;;;4933418;29;20137;-70
2022/05/19 14:03:52;;;;;;;10.68;1.80;;;;;;;;;;4933863;29;20028;-69
2022/05/19 14:06:21;;;;;;;5.88;1.40;;;;;;;;;;4935973;29;20028;-71
2022/05/19 14:08:47;;;;;;;8.38;1.80;;;;;;;;;;4936434;29;20102;-70
2022/05/19 14:11:16;;;;;;;5.68;1.50;;;;;;;;;;4936262;29;20035;-71
2022/05/19 14:13:44;;;;;;;6.18;1.33;;;;;;;;;;4928930;29;20035;-71
2022/05/19 14:16:17;;;;;;;7.22;1.88;;;;;;;;;;4936434;29;20034;-71
2022/05/19 14:18:48;;;;;;;4.93;1.50;;;;;;;;;;4935884;29;20040;-71
2022/05/19 14:21:17;;;;;;;4.15;1.27;;;;;;;;;;4936206;29;20031;-71
2022/05/19 14:23:49;;;;;;;7.20;1.60;;;;;;;;;;4936145;29;20027;-71
2022/05/19 14:26:22;;;;;;;5.45;1.50;;;;;;;;;;4936442;29;20039;-71
2022/05/19 14:28:48;;;;;;;8.30;1.50;;;;;;;;;;4935584;29;20032;-71
2022/05/19 14:31:32;;;;;;;7.28;1.52;;;;;;;;;;4935858;29;20143;-71
2022/05/19 14:33:59;;;;;;;4.45;1.50;;;;;;;;;;4935055;29;20023;-71
2022/05/19 14:36:26;;;;;;;5.35;1.45;;;;;;;;;;4935534;29;20464;-71
2022/05/19 14:38:54;;;;;;;4.75;1.10;;;;;;;;;;4935342;29;20028;-71
2022/05/19 14:44:28;;;;;;;3.70;1.48;;;;;;;;;;4935663;29;20046;-72
2022/05/19 14:47:13;;;;;;;5.10;1.30;;;;;;;;;;4934801;29;20386;-72
2022/05/19 14:49:41;;;;;;;4.35;1.42;;;;;;;;;;4936040;29;20102;-71
2022/05/19 14:52:07;;;;;;;3.90;1.30;;;;;;;;;;4935564;29;20106;-71
2022/05/19 14:54:36;;;;;;;5.22;1.60;;;;;;;;;;4935722;29;20135;-72
2022/05/19 14:57:05;;;;;;;6.30;1.38;;;;;;;;;;4935427;29;20024;-71
2022/05/19 14:59:46;;;;;;;4.13;1.50;;;;;;;;;;4935077;29;20032;-71
2022/05/19 15:02:12;;;;;;;5.93;1.50;;;;;;;;;;4934505;29;20590;-71
2022/05/19 15:04:38;;;;;;;5.85;1.60;;;;;;;;;;4934001;29;20027;-71
2022/05/19 15:07:08;;;;;;;7.72;1.55;;;;;;;;;;4917490;29;20146;-71
2022/05/19 15:09:36;;;;;;;7.10;1.85;;;;;;;;;;4934691;29;20023;-71
2022/05/19 15:12:03;;;;;;;9.35;1.90;;;;;;;;;;4934295;29;20481;-72
2022/05/19 15:14:29;;;;;;;8.00;1.80;;;;;;;;;;4934919;29;20059;-72
2022/05/19 15:16:55;;;;;;;8.95;1.73;;;;;;;;;;4935344;29;20074;-71
2022/05/19 15:19:23;;;;;;;8.85;1.85;;;;;;;;;;4934900;29;20046;-71
2022/05/19 15:21:49;;;;;;;9.93;1.70;;;;;;;;;;4916588;29;20054;-71
2022/05/19 15:24:16;;;;;;;5.40;1.55;;;;;;;;;;4915890;29;20091;-72
2022/05/19 15:26:42;;;;;;;8.05;1.48;;;;;;;;;;4916270;29;20060;-72
2022/05/19 15:29:08;;;;;;;10.30;2.00;;;;;;;;;;4915559;29;20036;-71
2022/05/19 15:31:35;;;;;;;8.05;1.55;;;;;;;;;;4915935;29;20032;-71
2022/05/19 15:34:01;;;;;;;7.57;1.80;;;;;;;;;;4915650;29;20040;-71
2022/05/19 15:36:27;;;;;;;8.00;1.88;;;;;;;;;;4915744;29;20505;-71
2022/05/19 15:38:53;;;;;;;10.65;1.98;;;;;;;;;;4915038;29;20035;-71
2022/05/19 15:41:19;;;;;;;5.00;1.52;;;;;;;;;;4915262;29;20032;-71
2022/05/19 15:43:45;;;;;;;10.10;1.95;;;;;;;;;;4933370;29;20110;-70
2022/05/19 15:46:12;;;;;;;9.15;1.60;;;;;;;;;;4934247;29;20518;-71
2022/05/19 15:48:38;;;;;;;11.32;1.83;;;;;;;;;;4934701;29;20437;-71
2022/05/19 15:51:05;;;;;;;11.07;1.92;;;;;;;;;;4934671;29;20032;-71
2022/05/19 15:53:31;;;;;;;8.43;1.80;;;;;;;;;;4933526;29;20032;-71
2022/05/19 15:55:57;;;;;;;11.18;1.95;;;;;;;;;;4934445;29;20031;-71
2022/05/19 15:58:26;;;;;;;10.10;1.75;;;;;;;;;;4934286;29;20396;-71
2022/05/19 16:00:53;;;;;;;9.90;1.98;;;;;;;;;;4934205;29;20098;-71
2022/05/19 16:03:23;;;;;;;10.35;1.67;;;;;;;;;;4934017;29;20047;-71
2022/05/19 16:05:49;;;;;;;6.93;1.48;;;;;;;;;;4934301;29;20036;-71
2022/05/19 16:08:15;;;;;;;10.52;2.00;;;;;;;;;;4934237;29;20487;-71
2022/05/19 16:10:45;;;;;;;10.75;1.80;;;;;;;;;;4931471;29;20040;-71
2022/05/19 16:13:11;;;;;;;11.82;1.63;;;;;;;;;;4915523;29;20028;-71
2022/05/19 16:15:38;;;;;;;10.20;2.15;;;;;;;;;;4915215;29;20032;-67
2022/05/19 16:18:05;;;;;;;12.35;1.98;;;;;;;;;;4914611;29;20024;-70
2022/05/19 16:20:31;;;;;;;10.65;1.63;;;;;;;;;;4915330;29;20091;-71
2022/05/19 16:22:58;;;;;;;12.38;2.47;;;;;;;;;;4915114;29;20028;-71
2022/05/19 16:25:32;;;;;;;9.18;1.90;;;;;;;;;;4914804;29;20028;-70
2022/05/19 16:27:59;;;;;;;13.93;2.17;;;;;;;;;;4914990;29;20107;-71
2022/05/19 16:30:27;;;;;;;9.07;1.95;;;;;;;;;;4914903;29;20099;-71
2022/05/19 16:32:53;;;;;;;11.23;2.13;;;;;;;;;;4897590;29;20108;-71
2022/05/19 16:35:20;;;;;;;11.68;1.92;;;;;;;;;;4914432;29;20068;-71
2022/05/19 16:37:50;;;;;;;10.18;2.00;;;;;;;;;;4914295;29;20039;-71
2022/05/19 16:40:16;;;;;;;9.70;2.03;;;;;;;;;;4914445;29;20068;-71
2022/05/19 16:42:42;;;;;;;11.75;2.22;;;;;;;;;;4924172;29;20027;-70
2022/05/19 16:45:09;;;;;;;7.95;2.08;;;;;;;;;;4932689;29;20078;-71
2022/05/19 16:47:36;;;;;;;16.05;2.17;;;;;;;;;;4933952;29;20060;-71
2022/05/19 16:50:03;;;;;;;10.07;2.03;;;;;;;;;;4933743;29;20036;-71
2022/05/19 16:52:29;;;;;;;8.10;1.75;;;;;;;;;;4933640;29;20031;-71
2022/05/19 16:57:48;;;;;;;10.32;1.73;;;;;;;;;;4934143;29;20047;-70
2022/05/19 17:00:19;;;;;;;12.52;2.05;;;;;;;;;;4933186;29;20036;-71
2022/05/19 17:02:45;;;;;;;8.07;1.80;;;;;;;;;;4932410;29;20028;-71
2022/05/19 17:05:12;;;;;;;10.95;1.80;;;;;;;;;;4933061;29;20107;-71
2022/05/19 17:07:39;;;;;;;10.75;2.97;;;;;;;;;;4933224;29;20051;-70
2022/05/19 17:10:07;;;;;;;11.38;1.92;;;;;;;;;;4915701;29;20055;-71
2022/05/19 17:12:33;;;;;;;10.75;2.00;;;;;;;;;;4933270;29;20032;-70
2022/05/19 17:15:00;;;;;;;10.85;1.73;;;;;;;;;;4933769;29;20432;-71
2022/05/19 17:17:26;;;;;;;11.55;1.85;;;;;;;;;;4933354;29;20036;-71
2022/05/19 17:19:52;;;;;;;11.75;2.13;;;;;;;;;;4932523;29;20497;-71
2022/05/19 17:22:19;;;;;;;10.43;1.88;;;;;;;;;;4933661;29;20031;-71
2022/05/19 17:24:46;;;;;;;13.13;1.92;;;;;;;;;;4933362;29;20020;-70
2022/05/19 17:27:15;;;;;;;9.05;2.40;;;;;;;;;;4933027;29;20488;-70
2022/05/19 17:29:41;;;;;;;12.63;2.17;;;;;;;;;;4933005;29;20039;-71
2022/05/19 17:32:07;;;;;;;11.30;2.10;;;;;;;;;;4933048;29;20582;-70
2022/05/19 17:34:34;;;;;;;9.75;1.88;;;;;;;;;;4933116;29;20484;-70
2022/05/19 17:37:00;;;;;;;11.73;2.03;;;;;;;;;;4932361;29;20032;-70
2022/05/19 17:39:29;;;;;;;11.05;1.80;;;;;;;;;;4918264;29;20046;-70
2022/05/19 17:41:55;;;;;;;11.77;1.80;;;;;;;;;;4936709;29;20067;-70
2022/05/19 17:44:22;;;;;;;9.82;1.80;;;;;;;;;;4936738;29;20034;-71
2022/05/19 17:46:48;;;;;;;11.05;2.22;;;;;;;;;;4936978;29;20038;-70
2022/05/19 17:49:14;;;;;;;9.68;1.67;;;;;;;;;;4937117;29;20024;-70
2022/05/19 17:51:40;;;;;;;12.45;1.67;;;;;;;;;;4936983;29;20044;-70
2022/05/19 17:54:06;;;;;;;13.52;1.70;;;;;;;;;;4936267;29;20075;-70
2022/05/19 17:56:36;;;;;;;12.43;2.10;;;;;;;;;;4936989;29;20032;-70
2022/05/19 17:59:02;;;;;;;10.32;1.83;;;;;;;;;;4937026;29;20030;-71
2022/05/19 18:01:29;;;;;;;9.55;1.52;;;;;;;;;;4936396;29;20082;-70
2022/05/19 18:03:55;;;;;;;13.32;1.80;;;;;;;;;;4936279;29;20042;-70
2022/05/19 18:06:21;;;;;;;12.23;1.98;;;;;;;;;;4936207;29;20108;-70
2022/05/19 18:08:47;;;;;;;12.68;1.77;;;;;;;;;;4935918;29;20425;-70
2022/05/19 18:11:14;;;;;;;12.15;2.25;;;;;;;;;;4935123;29;20032;-70
2022/05/19 18:13:41;;;;;;;10.23;2.15;;;;;;;;;;4936720;29;20040;-70
2022/05/19 18:18:52;;;;;;;8.73;1.50;;;;;;;;;;4936431;29;20124;-70
2022/05/19 18:21:19;;;;;;;13.60;2.17;;;;;;;;;;4936511;29;20059;-71
2022/05/19 18:23:45;;;;;;;7.88;2.00;;;;;;;;;;4936421;29;20394;-70
2022/05/19 18:26:14;;;;;;;14.40;1.80;;;;;;;;;;4936499;29;20079;-70
2022/05/19 18:28:40;;;;;;;13.85;2.30;;;;;;;;;;4935426;29;20090;-71
2022/05/19 18:31:07;;;;;;;12.13;1.80;;;;;;;;;;4936186;29;20129;-70
2022/05/19 18:33:33;;;;;;;9.43;1.80;;;;;;;;;;4935672;29;20024;-70
2022/05/19 18:35:59;;;;;;;13.50;1.75;;;;;;;;;;4936064;29;20028;-71
2022/05/19 18:38:25;;;;;;;15.15;2.00;;;;;;;;;;4935437;29;20024;-70
2022/05/19 18:46:22;;;;;;;11.55;1.70;;;;;;;;;;4936087;29;20555;-70
2022/05/19 18:48:48;;;;;;;10.18;1.77;;;;;;;;;;4935202;29;20042;-70
2022/05/19 18:51:15;;;;;;;10.95;1.85;;;;;;;;;;4935243;29;20043;-71
2022/05/19 18:53:41;;;;;;;10.88;2.13;;;;;;;;;;4935563;29;20356;-70
2022/05/19 18:56:09;;;;;;;11.45;1.65;;;;;;;;;;4935957;29;20031;-71
2022/05/19 18:58:36;;;;;;;9.05;1.75;;;;;;;;;;4935499;29;20020;-71
2022/05/19 19:01:05;;;;;;;10.80;1.77;;;;;;;;;;4934698;29;20028;-70
2022/05/19 19:03:31;;;;;;;11.48;1.88;;;;;;;;;;4935470;29;20028;-71
2022/05/19 19:05:57;;;;;;;11.07;1.80;;;;;;;;;;4934817;29;20046;-71
2022/05/19 19:08:23;;;;;;;12.40;2.13;;;;;;;;;;4935441;29;20036;-71
2022/05/19 19:10:50;;;;;;;7.32;1.67;;;;;;;;;;4934945;29;20031;-71
2022/05/19 19:13:16;;;;;;;13.95;2.40;;;;;;;;;;4935125;29;20067;-71
2022/05/19 19:15:42;;;;;;;18.20;2.10;;;;;;;;;;4935051;29;20028;-71
2022/05/19 19:18:08;;;;;;;16.25;2.47;;;;;;;;;;4929161;29;20020;-71
2022/05/19 19:20:34;;;;;;;14.90;2.50;;;;;;;;;;4916232;29;20080;-71
2022/05/19 19:23:01;;;;;;;15.02;3.00;;;;;;;;;;4916602;29;20042;-71
2022/05/19 19:25:27;;;;;;;12.43;2.03;;;;;;;;;;4916367;29;20028;-71
2022/05/19 19:27:53;;;;;;;14.05;2.33;;;;;;;;;;4916402;29;20032;-71
2022/05/19 19:30:19;;;;;;;20.83;2.10;;;;;;;;;;4916040;29;20086;-71
2022/05/19 19:32:47;;;;;;;16.00;2.22;;;;;;;;;;4915877;29;20040;-71
2022/05/19 19:35:13;;;;;;;14.50;2.08;;;;;;;;;;4916348;29;20035;-71
2022/05/19 19:37:41;;;;;;;15.18;2.45;;;;;;;;;;4915788;29;20032;-71
2022/05/19 19:40:13;;;;;;;14.45;2.33;;;;;;;;;;4915748;29;20021;-71
2022/05/19 19:42:39;;;;;;;14.40;1.95;;;;;;;;;;4925758;29;20032;-71
2022/05/19 19:45:06;;;;;;;9.68;1.58;;;;;;;;;;4935075;29;20047;-71
2022/05/19 19:47:32;;;;;;;12.73;1.65;;;;;;;;;;4934892;29;20045;-71
2022/05/19 19:52:43;;;;;;;10.25;1.90;;;;;;;;;;4934056;29;20058;-71
2022/05/19 19:55:09;;;;;;;13.32;1.65;;;;;;;;;;4934829;29;20032;-71
2022/05/19 19:57:35;;;;;;;16.83;2.13;;;;;;;;;;4934669;29;20070;-71
2022/05/19 20:00:03;;;;;;;17.35;2.30;;;;;;;;;;4934779;29;20043;-70
2022/05/19 20:02:29;;;;;;;18.60;2.47;;;;;;;;;;4933281;29;20151;-71
2022/05/19 20:04:55;;;;;;;12.15;1.88;;;;;;;;;;4934257;29;20046;-71
2022/05/19 20:07:21;;;;;;;15.15;2.10;;;;;;;;;;4933788;29;20030;-71
2022/05/19 20:09:47;;;;;;;14.05;2.20;;;;;;;;;;4932909;29;20039;-71
2022/05/19 20:12:15;;;;;;;12.48;2.40;;;;;;;;;;4933953;29;20035;-72
2022/05/19 20:14:43;;;;;;;11.32;2.13;;;;;;;;;;4934490;29;20031;-71
2022/05/19 20:17:09;;;;;;;16.58;2.42;;;;;;;;;;4934576;29;20040;-71
2022/05/19 20:19:35;;;;;;;13.25;2.20;;;;;;;;;;4257393;29;20051;-71
2022/05/19 20:22:01;;;;;;;11.98;2.50;;;;;;;;;;4934523;29;20061;-71
2022/05/19 20:24:28;;;;;;;13.80;2.47;;;;;;;;;;4934471;29;20024;-71
2022/05/19 20:26:54;;;;;;;14.20;1.77;;;;;;;;;;4933714;29;20016;-71
2022/05/19 20:29:21;;;;;;;14.75;1.92;;;;;;;;;;4933707;29;20032;-71
2022/05/19 20:31:47;;;;;;;10.48;1.95;;;;;;;;;;4933314;29;20138;-71
2022/05/19 20:34:13;;;;;;;8.57;1.25;;;;;;;;;;4933392;29;20032;-71
2022/05/19 20:36:39;;;;;;;8.13;1.70;;;;;;;;;;4933424;29;20485;-71
2022/05/19 20:39:06;;;;;;;12.13;1.83;;;;;;;;;;4933046;29;20463;-71
2022/05/19 20:41:33;;;;;;;17.98;2.40;;;;;;;;;;4933308;29;20023;-71
2022/05/19 20:44:00;;;;;;;16.55;2.53;;;;;;;;;;4933154;29;20028;-71
2022/05/19 20:46:26;;;;;;;13.13;2.08;;;;;;;;;;4933941;29;20032;-71
2022/05/19 20:48:53;;;;;;;10.73;1.60;;;;;;;;;;4934236;29;20118;-71
2022/05/19 20:51:20;;;;;;;14.57;1.65;;;;;;;;;;4933845;29;20163;-71
2022/05/19 20:53:46;;;;;;;16.15;1.92;;;;;;;;;;4934118;29;20050;-71
2022/05/19 20:56:12;;;;;;;14.02;2.17;;;;;;;;;;4934141;29;20102;-71
2022/05/19 20:58:39;;;;;;;12.40;2.03;;;;;;;;;;4933852;29;20028;-70
2022/05/19 21:01:05;;;;;;;17.95;2.72;;;;;;;;;;4932897;29;20520;-71
2022/05/19 21:03:32;;;;;;;12.07;1.50;;;;;;;;;;4933399;29;20051;-70
2022/05/19 21:05:58;;;;;;;10.80;1.52;;;;;;;;;;4933321;29;20024;-70
2022/05/19 21:08:24;;;;;;;13.18;1.92;;;;;;;;;;4933071;29;20035;-70